Goshen, New York
Current Conditions -  °F | °C
As of 11:54 AM on Tuesday 27 Jan 2015 (Local Time) from KMGJ Reporting Station
Light Snow Light Snow  
Wind Chill: 13°   Ceiling: 2300
Heat Index: 21°   Visibility: 1.5mi
Dew Point: 15°   Wind: 6mph
Humidity: 78%   Direction: 40°NE
Pressure: 29.7"   Gusts: NA
Location:  41.41°N, 74.32°W
Report Text: KMGJ 271654Z AUTO 04005KT 1 1/2SM -SN BKN023 OVC031 M06/M09 A2970 RMK AO2 SLP061 P0000 T10611094 TSNO
Loading
Personal Weather Stations






























Interactive Weather Map New forecast layout! Learn more

10-Day Weather Forecast

Advertisements
Track Severe Weather on mobile